Seneca Falls, NY

3:13 AM EDT on September 02, 2014 (GMT -0400)
Oswego County | Change Station
CLOSE
Current Station
Airport
Location: Fulton,
Elevation: 472 ft
Nearby Weather Stations

Elev 472 ft 43.35 °N, 76.38 °W | Updated 19 minutes ago

Clear
Clear
72 °F
Feels Like 72 °F
N
6
Wind Variable Wind from South

Today
High -- | Low -- °F
--% Chance of Precip.
Yesterday
High -- | Low -- °F
Precip. -- in
6:32 AM 7:40 PM
Waxing Crescent, 48% visible
Pressure 29.81 in
Visibility 9.0 miles
Clouds Clear
Dew Point 68 °F
Humidity 87%
Rainfall 0.00 in
Snow Depth Not available.
UV 0 out of 12
Pollen 7.70 out of 12
Ozone Good
PM2.5 Good
Flu Activity Not available.
METAR KFZY 020654Z AUTO 18005KT 9SM CLR 22/20 A2982 RMK AO2 SLP094 T02220200

More Conditions Fewer Conditions

Pressure 29.81 in
Visibility 9.0 miles
Clouds Clear
Dew Point 68 °F
Humidity 87%
Rainfall 0.00 in
Snow Depth Not available.
UV 0 out of 12
Pollen 7.70 out of 12
Ozone Good
PM2.5 Good
Flu Activity Not available.
METAR KFZY 020654Z AUTO 18005KT 9SM CLR 22/20 A2982 RMK AO2 SLP094 T02220200

More Conditions Fewer Conditions

10-Day Weather Forecast

Almanac

Astronomy

Sep. 02, 2014 Rise Set
Actual Time 6:32 AM EDT 7:40 PM EDT
Civil Twilight 6:03 AM EDT 8:09 PM EDT
Nautical Twilight 5:28 AM EDT 8:43 PM EDT
Astronomical Twilight 4:52 AM EDT 9:20 PM EDT
Moon 2:25 PM EDT No Moon Set
Length of Visible Light 14h 05m
Length of Day
13h 07m
Tomorrow will be 2m 49s shorter.
Waxing Crescent, 48% of the Moon is Illuminated
Today
Waxing Crescent
Sep 2
First Quarter
Sep 8
Full
Sep 15
Last Quarter
Sep 24
New

Today's Extremes

State Highs State Lows

Community

WunderPhotos

Upload Photos

1,749,589 photos uploaded!

WunderBlogs® & News

Nearby

Air Quality

  Air Quality AQ Index Pollutant
Yesterday Good
PM2.5
Yesterday Good
OZONE
Current Good
PM2.5
Current Good
OZONE
Tuesday Moderate
PM2.5
Tuesday Good
OZONE

Snow Depth

Station Depth Elevation
No new snow has been reported.

Earthquake Activity

City Distance Mag. Time & Date
No recent earthquake activity has been reported nearby.
Minimum magnitude displayed is 2.5.

Coastal Water Temperatures

Place Temperature
Alexandria Bay, NY 69.1 °F
Ogdensburg, NY 66.0 °F

Nearby Weather Stations